Walney Island, United Kingdom
Current Conditions -  °F | °C
As of 11:50 PM on Monday 20 Oct 2014 (Local Time) from EGNS Reporting Station
Light Rain Light Rain  
Wind Chill: 14°   Ceiling: Unl
Heat Index: 14°   Visibility: 6mi
Dew Point: 12°   Wind: 30mph
Humidity: 88%   Direction: 210°SSW
Pressure: 29.47"   Gusts: NA
Location:  54.12°N, 3.25°W
Report Text: EGNS 202250Z 21026KT 180V240 9999 -RA SCT015 SCT025 14/12 Q0998
Loading
Personal Weather Stations






























Interactive Weather Map
Tropical Storm Tracking
New forecast layout! Learn more

10-Day Weather Forecast

Advertisements
Track Severe Weather on mobile